sensor_id;sensor_type;location;lat;lon;timestamp;temperature;humidity
16076;DHT22;8142;48.242;11.644;2022-09-09T00:05:19;16.00;99.90
16076;DHT22;8142;48.242;11.644;2022-09-09T00:07:53;15.90;99.90
16076;DHT22;8142;48.242;11.644;2022-09-09T00:10:30;15.90;99.90
16076;DHT22;8142;48.242;11.644;2022-09-09T00:13:19;15.90;99.90
16076;DHT22;8142;48.242;11.644;2022-09-09T00:18:52;15.90;99.90
16076;DHT22;8142;48.242;11.644;2022-09-09T00:21:35;15.80;99.90
16076;DHT22;8142;48.242;11.644;2022-09-09T00:24:10;15.80;99.90
16076;DHT22;8142;48.242;11.644;2022-09-09T00:26:48;15.80;99.90
16076;DHT22;8142;48.242;11.644;2022-09-09T00:29:45;15.70;99.90
16076;DHT22;8142;48.242;11.644;2022-09-09T00:32:18;15.70;99.90
16076;DHT22;8142;48.242;11.644;2022-09-09T00:35:24;15.70;99.90
16076;DHT22;8142;48.242;11.644;2022-09-09T00:37:54;15.70;99.90
16076;DHT22;8142;48.242;11.644;2022-09-09T00:40:32;15.70;99.90
16076;DHT22;8142;48.242;11.644;2022-09-09T00:52:33;15.70;99.90
16076;DHT22;8142;48.242;11.644;2022-09-09T00:54:40;15.70;99.90
16076;DHT22;8142;48.242;11.644;2022-09-09T00:57:23;15.70;99.90
16076;DHT22;8142;48.242;11.644;2022-09-09T00:59:52;15.70;99.90
16076;DHT22;8142;48.242;11.644;2022-09-09T01:05:54;15.60;99.90
16076;DHT22;8142;48.242;11.644;2022-09-09T01:11:28;15.50;99.90
16076;DHT22;8142;48.242;11.644;2022-09-09T01:14:13;15.50;99.90
16076;DHT22;8142;48.242;11.644;2022-09-09T01:16:40;15.40;99.90
16076;DHT22;8142;48.242;11.644;2022-09-09T01:19:10;15.40;99.90
16076;DHT22;8142;48.242;11.644;2022-09-09T01:22:34;15.30;99.90
16076;DHT22;8142;48.242;11.644;2022-09-09T01:24:51;15.30;99.90
16076;DHT22;8142;48.242;11.644;2022-09-09T01:27:20;15.30;99.90
16076;DHT22;8142;48.242;11.644;2022-09-09T01:29:47;15.30;99.90
16076;DHT22;8142;48.242;11.644;2022-09-09T01:32:48;15.20;99.90
16076;DHT22;8142;48.242;11.644;2022-09-09T01:37:47;15.20;99.90
16076;DHT22;8142;48.242;11.644;2022-09-09T01:40:13;15.10;99.90
16076;DHT22;8142;48.242;11.644;2022-09-09T01:42:39;15.10;99.90
16076;DHT22;8142;48.242;11.644;2022-09-09T01:45:05;15.10;99.90
16076;DHT22;8142;48.242;11.644;2022-09-09T01:47:31;15.10;99.90
16076;DHT22;8142;48.242;11.644;2022-09-09T01:49:58;15.10;99.90
16076;DHT22;8142;48.242;11.644;2022-09-09T01:52:24;15.10;99.90
16076;DHT22;8142;48.242;11.644;2022-09-09T01:54:50;15.10;99.90
16076;DHT22;8142;48.242;11.644;2022-09-09T01:57:33;15.00;99.90
16076;DHT22;8142;48.242;11.644;2022-09-09T02:00:04;15.10;99.90
16076;DHT22;8142;48.242;11.644;2022-09-09T02:03:00;15.10;99.90
16076;DHT22;8142;48.242;11.644;2022-09-09T02:05:44;15.10;99.90
16076;DHT22;8142;48.242;11.644;2022-09-09T02:08:17;15.10;99.90
16076;DHT22;8142;48.242;11.644;2022-09-09T02:11:07;15.10;99.90
16076;DHT22;8142;48.242;11.644;2022-09-09T02:13:35;15.10;99.90
16076;DHT22;8142;48.242;11.644;2022-09-09T02:16:09;15.10;99.90
16076;DHT22;8142;48.242;11.644;2022-09-09T02:18:50;15.10;99.90
16076;DHT22;8142;48.242;11.644;2022-09-09T02:21:18;15.10;99.90
16076;DHT22;8142;48.242;11.644;2022-09-09T02:23:44;15.10;99.90
16076;DHT22;8142;48.242;11.644;2022-09-09T02:26:13;15.00;99.90
16076;DHT22;8142;48.242;11.644;2022-09-09T02:28:46;15.10;99.90
16076;DHT22;8142;48.242;11.644;2022-09-09T02:31:16;15.00;99.90
16076;DHT22;8142;48.242;11.644;2022-09-09T02:33:46;15.00;99.90
16076;DHT22;8142;48.242;11.644;2022-09-09T02:36:15;15.00;99.90
16076;DHT22;8142;48.242;11.644;2022-09-09T02:38:45;15.00;99.90
16076;DHT22;8142;48.242;11.644;2022-09-09T02:41:20;15.00;99.90
16076;DHT22;8142;48.242;11.644;2022-09-09T02:43:48;15.00;99.90
16076;DHT22;8142;48.242;11.644;2022-09-09T02:48:55;15.00;99.90
16076;DHT22;8142;48.242;11.644;2022-09-09T02:54:54;15.10;99.90
16076;DHT22;8142;48.242;11.644;2022-09-09T02:57:20;15.10;99.90
16076;DHT22;8142;48.242;11.644;2022-09-09T02:59:48;15.10;99.90
16076;DHT22;8142;48.242;11.644;2022-09-09T03:02:15;15.00;99.90
16076;DHT22;8142;48.242;11.644;2022-09-09T03:04:41;14.90;99.90
16076;DHT22;8142;48.242;11.644;2022-09-09T03:07:10;14.70;99.90
16076;DHT22;8142;48.242;11.644;2022-09-09T03:09:36;14.60;99.90
16076;DHT22;8142;48.242;11.644;2022-09-09T03:12:02;14.40;99.90
16076;DHT22;8142;48.242;11.644;2022-09-09T03:14:30;14.20;99.90
16076;DHT22;8142;48.242;11.644;2022-09-09T03:16:56;14.00;99.90
16076;DHT22;8142;48.242;11.644;2022-09-09T03:19:26;13.80;99.90
16076;DHT22;8142;48.242;11.644;2022-09-09T03:21:53;13.60;99.90
16076;DHT22;8142;48.242;11.644;2022-09-09T03:24:19;13.50;99.90
16076;DHT22;8142;48.242;11.644;2022-09-09T03:26:45;13.40;99.90
16076;DHT22;8142;48.242;11.644;2022-09-09T03:29:12;13.30;99.90
16076;DHT22;8142;48.242;11.644;2022-09-09T03:31:39;13.10;99.90
16076;DHT22;8142;48.242;11.644;2022-09-09T03:34:05;13.00;99.90
16076;DHT22;8142;48.242;11.644;2022-09-09T03:36:31;12.90;99.90
16076;DHT22;8142;48.242;11.644;2022-09-09T03:38:57;12.90;99.90
16076;DHT22;8142;48.242;11.644;2022-09-09T03:41:23;12.90;99.90
16076;DHT22;8142;48.242;11.644;2022-09-09T03:43:53;12.90;99.90
16076;DHT22;8142;48.242;11.644;2022-09-09T03:46:25;13.00;99.90
16076;DHT22;8142;48.242;11.644;2022-09-09T03:48:51;13.10;99.90
16076;DHT22;8142;48.242;11.644;2022-09-09T03:51:18;13.20;99.90
16076;DHT22;8142;48.242;11.644;2022-09-09T03:53:44;13.40;99.90
16076;DHT22;8142;48.242;11.644;2022-09-09T03:56:10;13.50;99.90
16076;DHT22;8142;48.242;11.644;2022-09-09T03:58:37;13.60;99.90
16076;DHT22;8142;48.242;11.644;2022-09-09T04:01:11;13.70;99.90
16076;DHT22;8142;48.242;11.644;2022-09-09T04:03:41;13.90;99.90
16076;DHT22;8142;48.242;11.644;2022-09-09T04:06:09;14.00;99.90
16076;DHT22;8142;48.242;11.644;2022-09-09T04:08:37;14.10;99.90
16076;DHT22;8142;48.242;11.644;2022-09-09T04:11:04;14.20;99.90
16076;DHT22;8142;48.242;11.644;2022-09-09T04:13:33;14.30;99.90
16076;DHT22;8142;48.242;11.644;2022-09-09T04:16:01;14.40;99.90
16076;DHT22;8142;48.242;11.644;2022-09-09T04:18:27;14.50;99.90
16076;DHT22;8142;48.242;11.644;2022-09-09T04:20:54;14.60;99.90
16076;DHT22;8142;48.242;11.644;2022-09-09T04:23:20;14.50;99.90
16076;DHT22;8142;48.242;11.644;2022-09-09T04:25:47;14.60;99.90
16076;DHT22;8142;48.242;11.644;2022-09-09T04:28:16;14.60;99.90
16076;DHT22;8142;48.242;11.644;2022-09-09T04:30:43;14.70;99.90
16076;DHT22;8142;48.242;11.644;2022-09-09T04:33:09;14.70;99.90
16076;DHT22;8142;48.242;11.644;2022-09-09T04:35:36;14.80;99.90
16076;DHT22;8142;48.242;11.644;2022-09-09T04:38:02;14.80;99.90
16076;DHT22;8142;48.242;11.644;2022-09-09T04:40:29;14.90;99.90
16076;DHT22;8142;48.242;11.644;2022-09-09T04:42:58;14.90;99.90
16076;DHT22;8142;48.242;11.644;2022-09-09T04:45:24;14.90;99.90
16076;DHT22;8142;48.242;11.644;2022-09-09T04:47:51;15.00;99.90
16076;DHT22;8142;48.242;11.644;2022-09-09T04:50:17;15.00;99.90
16076;DHT22;8142;48.242;11.644;2022-09-09T04:52:42;15.00;99.90
16076;DHT22;8142;48.242;11.644;2022-09-09T04:55:09;15.00;99.90
16076;DHT22;8142;48.242;11.644;2022-09-09T04:57:35;15.00;99.90
16076;DHT22;8142;48.242;11.644;2022-09-09T05:00:01;14.90;99.90
16076;DHT22;8142;48.242;11.644;2022-09-09T05:02:29;15.00;99.90
16076;DHT22;8142;48.242;11.644;2022-09-09T05:04:56;15.00;99.90
16076;DHT22;8142;48.242;11.644;2022-09-09T05:07:22;15.00;99.90
16076;DHT22;8142;48.242;11.644;2022-09-09T05:09:47;15.00;99.90
16076;DHT22;8142;48.242;11.644;2022-09-09T05:12:15;14.90;99.90
16076;DHT22;8142;48.242;11.644;2022-09-09T05:14:43;14.90;99.90
16076;DHT22;8142;48.242;11.644;2022-09-09T05:17:09;14.90;99.90
16076;DHT22;8142;48.242;11.644;2022-09-09T05:19:35;15.00;99.90
16076;DHT22;8142;48.242;11.644;2022-09-09T05:22:01;14.90;99.90
16076;DHT22;8142;48.242;11.644;2022-09-09T05:24:27;14.90;99.90
16076;DHT22;8142;48.242;11.644;2022-09-09T05:26:53;14.90;99.90
16076;DHT22;8142;48.242;11.644;2022-09-09T05:29:18;14.90;99.90
16076;DHT22;8142;48.242;11.644;2022-09-09T05:31:45;14.90;99.90
16076;DHT22;8142;48.242;11.644;2022-09-09T05:34:12;14.90;99.90
16076;DHT22;8142;48.242;11.644;2022-09-09T05:36:38;14.90;99.90
16076;DHT22;8142;48.242;11.644;2022-09-09T05:39:04;14.90;99.90
16076;DHT22;8142;48.242;11.644;2022-09-09T05:41:30;14.90;99.90
16076;DHT22;8142;48.242;11.644;2022-09-09T05:43:57;14.90;99.90
16076;DHT22;8142;48.242;11.644;2022-09-09T05:46:24;15.00;99.90
16076;DHT22;8142;48.242;11.644;2022-09-09T05:48:51;15.00;99.90
16076;DHT22;8142;48.242;11.644;2022-09-09T05:51:19;14.90;99.90
16076;DHT22;8142;48.242;11.644;2022-09-09T05:53:48;14.90;99.90
16076;DHT22;8142;48.242;11.644;2022-09-09T05:56:16;14.90;99.90
16076;DHT22;8142;48.242;11.644;2022-09-09T05:58:46;15.00;99.90
16076;DHT22;8142;48.242;11.644;2022-09-09T06:01:17;15.00;99.90
16076;DHT22;8142;48.242;11.644;2022-09-09T06:03:45;15.10;99.90
16076;DHT22;8142;48.242;11.644;2022-09-09T06:06:13;15.10;99.90
16076;DHT22;8142;48.242;11.644;2022-09-09T06:08:42;15.10;99.90
16076;DHT22;8142;48.242;11.644;2022-09-09T06:11:15;15.10;99.90
16076;DHT22;8142;48.242;11.644;2022-09-09T06:13:42;15.10;99.90
16076;DHT22;8142;48.242;11.644;2022-09-09T06:16:10;15.20;99.90
16076;DHT22;8142;48.242;11.644;2022-09-09T06:18:37;15.20;99.90
16076;DHT22;8142;48.242;11.644;2022-09-09T06:21:05;15.20;99.90
16076;DHT22;8142;48.242;11.644;2022-09-09T06:23:32;15.00;99.90
16076;DHT22;8142;48.242;11.644;2022-09-09T06:26:10;15.00;99.90
16076;DHT22;8142;48.242;11.644;2022-09-09T06:28:36;14.80;99.90
16076;DHT22;8142;48.242;11.644;2022-09-09T06:31:05;14.70;99.90
16076;DHT22;8142;48.242;11.644;2022-09-09T06:33:33;14.70;99.90
16076;DHT22;8142;48.242;11.644;2022-09-09T06:36:02;14.60;99.90
16076;DHT22;8142;48.242;11.644;2022-09-09T06:38:29;14.50;99.90
16076;DHT22;8142;48.242;11.644;2022-09-09T06:40:57;14.50;99.90
16076;DHT22;8142;48.242;11.644;2022-09-09T06:43:24;14.50;99.90
16076;DHT22;8142;48.242;11.644;2022-09-09T06:46:03;14.60;99.90
16076;DHT22;8142;48.242;11.644;2022-09-09T06:48:29;14.60;99.90
16076;DHT22;8142;48.242;11.644;2022-09-09T06:51:21;14.70;99.90
16076;DHT22;8142;48.242;11.644;2022-09-09T06:53:50;14.80;99.90
16076;DHT22;8142;48.242;11.644;2022-09-09T06:58:43;15.10;99.90
16076;DHT22;8142;48.242;11.644;2022-09-09T07:01:11;15.20;99.90
16076;DHT22;8142;48.242;11.644;2022-09-09T07:03:42;15.30;99.90
16076;DHT22;8142;48.242;11.644;2022-09-09T07:06:16;15.40;99.90
16076;DHT22;8142;48.242;11.644;2022-09-09T07:08:43;15.50;99.90
16076;DHT22;8142;48.242;11.644;2022-09-09T07:11:09;15.70;99.90
16076;DHT22;8142;48.242;11.644;2022-09-09T07:13:36;15.80;99.90
16076;DHT22;8142;48.242;11.644;2022-09-09T07:16:14;15.90;99.90
16076;DHT22;8142;48.242;11.644;2022-09-09T07:18:41;16.00;99.90
16076;DHT22;8142;48.242;11.644;2022-09-09T07:21:08;16.20;99.90
16076;DHT22;8142;48.242;11.644;2022-09-09T07:23:34;16.20;99.90
16076;DHT22;8142;48.242;11.644;2022-09-09T07:26:15;16.30;99.90
16076;DHT22;8142;48.242;11.644;2022-09-09T07:28:42;16.40;99.90
16076;DHT22;8142;48.242;11.644;2022-09-09T07:31:26;16.40;99.90
16076;DHT22;8142;48.242;11.644;2022-09-09T07:33:52;16.40;99.90
16076;DHT22;8142;48.242;11.644;2022-09-09T07:36:26;16.40;99.90
16076;DHT22;8142;48.242;11.644;2022-09-09T07:38:58;16.40;99.90
16076;DHT22;8142;48.242;11.644;2022-09-09T07:41:29;16.30;99.90
16076;DHT22;8142;48.242;11.644;2022-09-09T07:43:57;16.30;99.90
16076;DHT22;8142;48.242;11.644;2022-09-09T07:46:25;16.30;99.90
16076;DHT22;8142;48.242;11.644;2022-09-09T07:48:53;16.30;99.90
16076;DHT22;8142;48.242;11.644;2022-09-09T07:51:25;16.30;99.90
16076;DHT22;8142;48.242;11.644;2022-09-09T07:53:54;16.30;99.90
16076;DHT22;8142;48.242;11.644;2022-09-09T07:56:21;16.30;99.90
16076;DHT22;8142;48.242;11.644;2022-09-09T07:58:51;16.30;99.90
16076;DHT22;8142;48.242;11.644;2022-09-09T08:01:33;16.30;99.90
16076;DHT22;8142;48.242;11.644;2022-09-09T08:04:04;16.40;99.90
16076;DHT22;8142;48.242;11.644;2022-09-09T08:06:33;16.40;99.90
16076;DHT22;8142;48.242;11.644;2022-09-09T08:09:00;16.40;99.90
16076;DHT22;8142;48.242;11.644;2022-09-09T08:11:28;16.40;99.90
16076;DHT22;8142;48.242;11.644;2022-09-09T08:13:54;16.50;99.90
16076;DHT22;8142;48.242;11.644;2022-09-09T08:16:23;16.50;99.90
16076;DHT22;8142;48.242;11.644;2022-09-09T08:18:49;16.50;99.90
16076;DHT22;8142;48.242;11.644;2022-09-09T08:21:22;16.60;99.90
16076;DHT22;8142;48.242;11.644;2022-09-09T08:23:51;16.60;99.90
16076;DHT22;8142;48.242;11.644;2022-09-09T08:26:20;16.70;99.90
16076;DHT22;8142;48.242;11.644;2022-09-09T08:28:50;16.70;99.90
16076;DHT22;8142;48.242;11.644;2022-09-09T08:31:20;16.80;99.90
16076;DHT22;8142;48.242;11.644;2022-09-09T08:33:47;16.80;99.90
16076;DHT22;8142;48.242;11.644;2022-09-09T08:36:16;16.80;99.90
16076;DHT22;8142;48.242;11.644;2022-09-09T08:38:42;16.90;99.90
16076;DHT22;8142;48.242;11.644;2022-09-09T08:41:36;16.90;99.90
16076;DHT22;8142;48.242;11.644;2022-09-09T08:52:55;17.00;99.90
16076;DHT22;8142;48.242;11.644;2022-09-09T08:58:13;17.00;99.90
16076;DHT22;8142;48.242;11.644;2022-09-09T09:00:53;17.00;99.90
16076;DHT22;8142;48.242;11.644;2022-09-09T09:09:06;17.00;99.90
16076;DHT22;8142;48.242;11.644;2022-09-09T09:11:43;16.90;99.90
16076;DHT22;8142;48.242;11.644;2022-09-09T09:14:26;17.00;99.90
16076;DHT22;8142;48.242;11.644;2022-09-09T09:19:40;17.00;99.90
16076;DHT22;8142;48.242;11.644;2022-09-09T09:24:56;17.10;99.90
16076;DHT22;8142;48.242;11.644;2022-09-09T09:30:02;17.10;99.90
16076;DHT22;8142;48.242;11.644;2022-09-09T09:32:33;17.10;99.90
16076;DHT22;8142;48.242;11.644;2022-09-09T09:35:02;17.10;99.90
16076;DHT22;8142;48.242;11.644;2022-09-09T09:37:33;17.20;99.90
16076;DHT22;8142;48.242;11.644;2022-09-09T09:42:36;17.30;99.90
16076;DHT22;8142;48.242;11.644;2022-09-09T09:45:32;17.40;99.90
16076;DHT22;8142;48.242;11.644;2022-09-09T09:48:00;17.40;99.90
16076;DHT22;8142;48.242;11.644;2022-09-09T09:50:28;17.50;99.90
16076;DHT22;8142;48.242;11.644;2022-09-09T09:53:00;17.60;99.90
16076;DHT22;8142;48.242;11.644;2022-09-09T09:55:28;17.60;99.90
16076;DHT22;8142;48.242;11.644;2022-09-09T09:58:01;17.70;99.90
16076;DHT22;8142;48.242;11.644;2022-09-09T10:00:28;17.70;99.90
16076;DHT22;8142;48.242;11.644;2022-09-09T10:02:54;17.70;99.90
16076;DHT22;8142;48.242;11.644;2022-09-09T10:05:27;17.80;99.90
16076;DHT22;8142;48.242;11.644;2022-09-09T10:08:15;17.80;99.90
16076;DHT22;8142;48.242;11.644;2022-09-09T10:21:45;18.10;99.90
16076;DHT22;8142;48.242;11.644;2022-09-09T10:34:56;18.10;99.90
16076;DHT22;8142;48.242;11.644;2022-09-09T10:40:14;18.10;99.90
16076;DHT22;8142;48.242;11.644;2022-09-09T10:42:45;18.10;99.90
16076;DHT22;8142;48.242;11.644;2022-09-09T10:45:23;18.10;99.90
16076;DHT22;8142;48.242;11.644;2022-09-09T10:48:11;18.10;99.90
16076;DHT22;8142;48.242;11.644;2022-09-09T10:50:52;18.10;99.90
16076;DHT22;8142;48.242;11.644;2022-09-09T10:56:12;18.20;99.90
16076;DHT22;8142;48.242;11.644;2022-09-09T10:58:54;18.30;99.90
16076;DHT22;8142;48.242;11.644;2022-09-09T11:01:32;18.30;99.90
16076;DHT22;8142;48.242;11.644;2022-09-09T11:06:58;18.30;99.90
16076;DHT22;8142;48.242;11.644;2022-09-09T11:09:32;18.40;99.90
16076;DHT22;8142;48.242;11.644;2022-09-09T11:12:02;18.50;99.90
16076;DHT22;8142;48.242;11.644;2022-09-09T11:17:01;18.60;99.90
16076;DHT22;8142;48.242;11.644;2022-09-09T11:19:34;18.60;99.90
16076;DHT22;8142;48.242;11.644;2022-09-09T11:22:04;18.60;99.90
16076;DHT22;8142;48.242;11.644;2022-09-09T11:24:41;18.70;99.90
16076;DHT22;8142;48.242;11.644;2022-09-09T11:27:19;18.90;99.90
16076;DHT22;8142;48.242;11.644;2022-09-09T11:30:20;18.90;99.90
16076;DHT22;8142;48.242;11.644;2022-09-09T11:35:44;19.20;99.90
16076;DHT22;8142;48.242;11.644;2022-09-09T11:38:26;19.20;99.90
16076;DHT22;8142;48.242;11.644;2022-09-09T11:41:03;19.30;99.90
16076;DHT22;8142;48.242;11.644;2022-09-09T11:43:44;19.40;99.90
16076;DHT22;8142;48.242;11.644;2022-09-09T11:46:15;19.50;99.90
16076;DHT22;8142;48.242;11.644;2022-09-09T11:48:44;19.50;99.90
16076;DHT22;8142;48.242;11.644;2022-09-09T11:54:02;19.60;99.90
16076;DHT22;8142;48.242;11.644;2022-09-09T11:56:42;19.70;99.90
16076;DHT22;8142;48.242;11.644;2022-09-09T11:59:26;19.70;99.90
16076;DHT22;8142;48.242;11.644;2022-09-09T12:02:02;19.80;99.90
16076;DHT22;8142;48.242;11.644;2022-09-09T12:04:37;19.70;99.90
16076;DHT22;8142;48.242;11.644;2022-09-09T12:09:50;19.50;99.90
16076;DHT22;8142;48.242;11.644;2022-09-09T12:12:46;19.40;99.90
16076;DHT22;8142;48.242;11.644;2022-09-09T12:17:46;19.20;99.90
16076;DHT22;8142;48.242;11.644;2022-09-09T12:20:23;19.00;99.90
16076;DHT22;8142;48.242;11.644;2022-09-09T12:23:02;18.90;99.90
16076;DHT22;8142;48.242;11.644;2022-09-09T12:31:10;18.70;99.90
16076;DHT22;8142;48.242;11.644;2022-09-09T12:33:44;18.70;99.90
16076;DHT22;8142;48.242;11.644;2022-09-09T12:36:28;18.70;99.90
16076;DHT22;8142;48.242;11.644;2022-09-09T12:38:57;18.70;99.90
16076;DHT22;8142;48.242;11.644;2022-09-09T12:41:27;18.80;99.90
16076;DHT22;8142;48.242;11.644;2022-09-09T12:44:08;18.90;99.90
16076;DHT22;8142;48.242;11.644;2022-09-09T12:46:45;19.10;99.90
16076;DHT22;8142;48.242;11.644;2022-09-09T12:49:31;19.20;99.90
16076;DHT22;8142;48.242;11.644;2022-09-09T12:52:21;19.20;99.90
16076;DHT22;8142;48.242;11.644;2022-09-09T12:54:49;19.30;99.90
16076;DHT22;8142;48.242;11.644;2022-09-09T12:57:20;19.40;99.90
16076;DHT22;8142;48.242;11.644;2022-09-09T12:59:47;19.40;99.90
16076;DHT22;8142;48.242;11.644;2022-09-09T13:02:22;19.50;99.90
16076;DHT22;8142;48.242;11.644;2022-09-09T13:04:49;19.60;99.90
16076;DHT22;8142;48.242;11.644;2022-09-09T13:07:17;19.80;99.90
16076;DHT22;8142;48.242;11.644;2022-09-09T13:09:44;19.90;99.90
16076;DHT22;8142;48.242;11.644;2022-09-09T13:12:18;19.90;99.90
16076;DHT22;8142;48.242;11.644;2022-09-09T13:14:47;20.00;99.90
16076;DHT22;8142;48.242;11.644;2022-09-09T13:17:27;20.10;99.90
16076;DHT22;8142;48.242;11.644;2022-09-09T13:19:55;20.20;99.90
16076;DHT22;8142;48.242;11.644;2022-09-09T13:22:35;20.40;99.90
16076;DHT22;8142;48.242;11.644;2022-09-09T13:27:39;20.50;99.90
16076;DHT22;8142;48.242;11.644;2022-09-09T13:30:27;20.50;99.90
16076;DHT22;8142;48.242;11.644;2022-09-09T13:35:32;20.50;99.90
16076;DHT22;8142;48.242;11.644;2022-09-09T13:38:05;20.50;99.90
16076;DHT22;8142;48.242;11.644;2022-09-09T13:40:33;20.40;99.90
16076;DHT22;8142;48.242;11.644;2022-09-09T13:43:00;20.40;99.90
16076;DHT22;8142;48.242;11.644;2022-09-09T13:45:27;20.30;99.90
16076;DHT22;8142;48.242;11.644;2022-09-09T13:47:54;20.40;99.90
16076;DHT22;8142;48.242;11.644;2022-09-09T13:50:23;20.40;99.90
16076;DHT22;8142;48.242;11.644;2022-09-09T13:52:52;20.50;99.90
16076;DHT22;8142;48.242;11.644;2022-09-09T13:55:20;20.50;99.90
16076;DHT22;8142;48.242;11.644;2022-09-09T14:00:22;20.50;99.90
16076;DHT22;8142;48.242;11.644;2022-09-09T14:02:49;20.50;99.90
16076;DHT22;8142;48.242;11.644;2022-09-09T14:05:18;20.40;99.90
16076;DHT22;8142;48.242;11.644;2022-09-09T14:07:44;20.40;99.90
16076;DHT22;8142;48.242;11.644;2022-09-09T14:10:12;20.40;99.90
16076;DHT22;8142;48.242;11.644;2022-09-09T14:12:38;20.30;99.90
16076;DHT22;8142;48.242;11.644;2022-09-09T14:15:05;20.30;99.90
16076;DHT22;8142;48.242;11.644;2022-09-09T14:17:32;20.30;99.90
16076;DHT22;8142;48.242;11.644;2022-09-09T14:19:58;20.30;99.90
16076;DHT22;8142;48.242;11.644;2022-09-09T14:22:24;20.30;99.90
16076;DHT22;8142;48.242;11.644;2022-09-09T14:24:51;20.30;99.90
16076;DHT22;8142;48.242;11.644;2022-09-09T14:27:17;20.30;99.90
16076;DHT22;8142;48.242;11.644;2022-09-09T14:29:44;20.40;99.90
16076;DHT22;8142;48.242;11.644;2022-09-09T14:32:11;20.40;99.90
16076;DHT22;8142;48.242;11.644;2022-09-09T14:34:37;20.40;99.90
16076;DHT22;8142;48.242;11.644;2022-09-09T14:37:03;20.50;99.90
16076;DHT22;8142;48.242;11.644;2022-09-09T14:39:30;20.50;99.90
16076;DHT22;8142;48.242;11.644;2022-09-09T14:41:56;20.50;99.90
16076;DHT22;8142;48.242;11.644;2022-09-09T14:44:22;20.60;99.90
16076;DHT22;8142;48.242;11.644;2022-09-09T14:46:48;20.70;99.90
16076;DHT22;8142;48.242;11.644;2022-09-09T14:49:15;20.70;99.90
16076;DHT22;8142;48.242;11.644;2022-09-09T14:51:41;20.70;99.90
16076;DHT22;8142;48.242;11.644;2022-09-09T14:54:07;20.80;99.90
16076;DHT22;8142;48.242;11.644;2022-09-09T14:56:34;20.80;99.90
16076;DHT22;8142;48.242;11.644;2022-09-09T14:59:00;20.80;99.90
16076;DHT22;8142;48.242;11.644;2022-09-09T15:01:28;20.80;99.90
16076;DHT22;8142;48.242;11.644;2022-09-09T15:03:57;20.80;99.90
16076;DHT22;8142;48.242;11.644;2022-09-09T15:06:24;20.70;99.90
16076;DHT22;8142;48.242;11.644;2022-09-09T15:08:52;20.70;99.90
16076;DHT22;8142;48.242;11.644;2022-09-09T15:11:19;20.60;99.90
16076;DHT22;8142;48.242;11.644;2022-09-09T15:13:46;20.50;99.90
16076;DHT22;8142;48.242;11.644;2022-09-09T15:16:17;20.50;99.90
16076;DHT22;8142;48.242;11.644;2022-09-09T15:18:45;20.50;99.90
16076;DHT22;8142;48.242;11.644;2022-09-09T15:21:19;20.40;99.90
16076;DHT22;8142;48.242;11.644;2022-09-09T15:23:45;20.40;99.90
16076;DHT22;8142;48.242;11.644;2022-09-09T15:26:12;20.20;99.90
16076;DHT22;8142;48.242;11.644;2022-09-09T15:28:42;20.20;99.90
16076;DHT22;8142;48.242;11.644;2022-09-09T15:33:56;20.00;99.90
16076;DHT22;8142;48.242;11.644;2022-09-09T15:36:37;19.90;99.90
16076;DHT22;8142;48.242;11.644;2022-09-09T15:39:06;19.90;99.90
16076;DHT22;8142;48.242;11.644;2022-09-09T15:41:32;19.80;99.90
16076;DHT22;8142;48.242;11.644;2022-09-09T15:43:58;19.80;99.90
16076;DHT22;8142;48.242;11.644;2022-09-09T15:46:28;19.80;99.90
16076;DHT22;8142;48.242;11.644;2022-09-09T15:48:56;19.80;99.90
16076;DHT22;8142;48.242;11.644;2022-09-09T15:51:23;19.80;99.90
16076;DHT22;8142;48.242;11.644;2022-09-09T15:53:55;19.80;99.90
16076;DHT22;8142;48.242;11.644;2022-09-09T15:56:22;19.80;99.90
16076;DHT22;8142;48.242;11.644;2022-09-09T15:58:48;19.70;99.90
16076;DHT22;8142;48.242;11.644;2022-09-09T16:01:14;19.70;99.90
16076;DHT22;8142;48.242;11.644;2022-09-09T16:03:42;19.50;99.90
16076;DHT22;8142;48.242;11.644;2022-09-09T16:06:11;19.50;99.90
16076;DHT22;8142;48.242;11.644;2022-09-09T16:08:40;19.50;99.90
16076;DHT22;8142;48.242;11.644;2022-09-09T16:11:07;19.50;99.90
16076;DHT22;8142;48.242;11.644;2022-09-09T16:13:37;19.60;99.90
16076;DHT22;8142;48.242;11.644;2022-09-09T16:16:05;19.70;99.90
16076;DHT22;8142;48.242;11.644;2022-09-09T16:18:37;19.80;99.90
16076;DHT22;8142;48.242;11.644;2022-09-09T16:21:04;20.00;99.90
16076;DHT22;8142;48.242;11.644;2022-09-09T16:23:34;20.10;99.90
16076;DHT22;8142;48.242;11.644;2022-09-09T16:26:01;20.30;99.90
16076;DHT22;8142;48.242;11.644;2022-09-09T16:28:27;20.30;99.90
16076;DHT22;8142;48.242;11.644;2022-09-09T16:30:53;20.40;99.90
16076;DHT22;8142;48.242;11.644;2022-09-09T16:33:19;20.40;99.90
16076;DHT22;8142;48.242;11.644;2022-09-09T16:35:45;20.40;99.90
16076;DHT22;8142;48.242;11.644;2022-09-09T16:38:11;20.40;99.90
16076;DHT22;8142;48.242;11.644;2022-09-09T16:40:37;20.40;99.90
16076;DHT22;8142;48.242;11.644;2022-09-09T16:43:04;20.30;99.90
16076;DHT22;8142;48.242;11.644;2022-09-09T16:45:31;20.40;99.90
16076;DHT22;8142;48.242;11.644;2022-09-09T16:47:58;20.30;99.90
16076;DHT22;8142;48.242;11.644;2022-09-09T16:50:24;20.30;99.90
16076;DHT22;8142;48.242;11.644;2022-09-09T16:52:53;20.20;99.90
16076;DHT22;8142;48.242;11.644;2022-09-09T16:55:19;20.10;99.90
16076;DHT22;8142;48.242;11.644;2022-09-09T16:57:49;20.10;99.90
16076;DHT22;8142;48.242;11.644;2022-09-09T17:00:15;19.90;99.90
16076;DHT22;8142;48.242;11.644;2022-09-09T17:02:44;19.90;99.90
16076;DHT22;8142;48.242;11.644;2022-09-09T17:05:11;19.80;99.90
16076;DHT22;8142;48.242;11.644;2022-09-09T17:07:38;19.80;99.90
16076;DHT22;8142;48.242;11.644;2022-09-09T17:10:04;19.70;99.90
16076;DHT22;8142;48.242;11.644;2022-09-09T17:12:32;19.70;99.90
16076;DHT22;8142;48.242;11.644;2022-09-09T17:14:58;19.60;99.90
16076;DHT22;8142;48.242;11.644;2022-09-09T17:17:25;19.60;99.90
16076;DHT22;8142;48.242;11.644;2022-09-09T17:19:52;19.60;99.90
16076;DHT22;8142;48.242;11.644;2022-09-09T17:22:18;19.50;99.90
16076;DHT22;8142;48.242;11.644;2022-09-09T17:24:46;19.60;99.90
16076;DHT22;8142;48.242;11.644;2022-09-09T17:27:12;19.50;99.90
16076;DHT22;8142;48.242;11.644;2022-09-09T17:29:38;19.40;99.90
16076;DHT22;8142;48.242;11.644;2022-09-09T17:32:05;19.40;99.90
16076;DHT22;8142;48.242;11.644;2022-09-09T17:34:33;19.30;99.90
16076;DHT22;8142;48.242;11.644;2022-09-09T17:36:59;19.20;99.90
16076;DHT22;8142;48.242;11.644;2022-09-09T17:39:26;19.10;99.90
16076;DHT22;8142;48.242;11.644;2022-09-09T17:41:51;19.10;99.90
16076;DHT22;8142;48.242;11.644;2022-09-09T17:44:18;19.00;99.90
16076;DHT22;8142;48.242;11.644;2022-09-09T17:46:45;18.90;99.90
16076;DHT22;8142;48.242;11.644;2022-09-09T17:49:14;18.90;99.90
16076;DHT22;8142;48.242;11.644;2022-09-09T17:51:41;18.80;99.90